sensor_id;sensor_type;location;lat;lon;timestamp;P1;durP1;ratioP1;P2;durP2;ratioP2
57295;SDS011;43146;50.976;18.216;2022-12-29T00:02:11;16.50;;;6.90;;
57295;SDS011;43146;50.976;18.216;2022-12-29T00:04:37;13.80;;;5.90;;
57295;SDS011;43146;50.976;18.216;2022-12-29T00:07:03;21.60;;;9.30;;
57295;SDS011;43146;50.976;18.216;2022-12-29T00:09:32;16.30;;;7.50;;
57295;SDS011;43146;50.976;18.216;2022-12-29T00:11:58;18.40;;;8.90;;
57295;SDS011;43146;50.976;18.216;2022-12-29T00:14:24;20.00;;;10.40;;
57295;SDS011;43146;50.976;18.216;2022-12-29T00:17:08;15.80;;;8.10;;
57295;SDS011;43146;50.976;18.216;2022-12-29T00:19:34;20.50;;;11.00;;
57295;SDS011;43146;50.976;18.216;2022-12-29T00:22:19;16.90;;;8.90;;
57295;SDS011;43146;50.976;18.216;2022-12-29T00:25:04;17.40;;;8.50;;
57295;SDS011;43146;50.976;18.216;2022-12-29T00:27:50;16.60;;;7.90;;
57295;SDS011;43146;50.976;18.216;2022-12-29T00:30:35;14.90;;;7.30;;
57295;SDS011;43146;50.976;18.216;2022-12-29T00:33:20;17.10;;;6.50;;
57295;SDS011;43146;50.976;18.216;2022-12-29T00:38:33;13.90;;;6.60;;
57295;SDS011;43146;50.976;18.216;2022-12-29T00:41:26;13.80;;;6.30;;
57295;SDS011;43146;50.976;18.216;2022-12-29T00:44:12;19.30;;;9.20;;
57295;SDS011;43146;50.976;18.216;2022-12-29T00:46:39;16.50;;;7.40;;
57295;SDS011;43146;50.976;18.216;2022-12-29T00:49:06;17.80;;;8.00;;
57295;SDS011;43146;50.976;18.216;2022-12-29T00:51:53;15.10;;;7.40;;
57295;SDS011;43146;50.976;18.216;2022-12-29T00:54:24;14.60;;;6.90;;
57295;SDS011;43146;50.976;18.216;2022-12-29T00:56:50;15.00;;;6.50;;
57295;SDS011;43146;50.976;18.216;2022-12-29T00:59:17;14.60;;;7.40;;
57295;SDS011;43146;50.976;18.216;2022-12-29T01:01:43;14.80;;;6.80;;
57295;SDS011;43146;50.976;18.216;2022-12-29T01:04:10;14.70;;;6.40;;
57295;SDS011;43146;50.976;18.216;2022-12-29T01:06:36;15.70;;;6.60;;
57295;SDS011;43146;50.976;18.216;2022-12-29T01:09:03;13.80;;;6.60;;
57295;SDS011;43146;50.976;18.216;2022-12-29T01:11:49;13.20;;;6.10;;
57295;SDS011;43146;50.976;18.216;2022-12-29T01:14:15;14.20;;;6.80;;
57295;SDS011;43146;50.976;18.216;2022-12-29T01:16:41;14.40;;;7.10;;
57295;SDS011;43146;50.976;18.216;2022-12-29T01:19:06;14.00;;;6.20;;
57295;SDS011;43146;50.976;18.216;2022-12-29T01:21:32;17.10;;;7.50;;
57295;SDS011;43146;50.976;18.216;2022-12-29T01:23:58;18.70;;;6.80;;
57295;SDS011;43146;50.976;18.216;2022-12-29T01:26:24;16.50;;;6.70;;
57295;SDS011;43146;50.976;18.216;2022-12-29T01:28:49;15.50;;;6.70;;
57295;SDS011;43146;50.976;18.216;2022-12-29T01:31:15;15.00;;;6.50;;
57295;SDS011;43146;50.976;18.216;2022-12-29T01:33:41;15.10;;;5.90;;
57295;SDS011;43146;50.976;18.216;2022-12-29T01:36:08;15.30;;;6.50;;
57295;SDS011;43146;50.976;18.216;2022-12-29T01:38:36;13.90;;;5.90;;
57295;SDS011;43146;50.976;18.216;2022-12-29T01:41:03;12.90;;;5.70;;
57295;SDS011;43146;50.976;18.216;2022-12-29T01:43:43;13.10;;;6.10;;
57295;SDS011;43146;50.976;18.216;2022-12-29T01:46:20;11.80;;;5.10;;
57295;SDS011;43146;50.976;18.216;2022-12-29T01:48:49;14.60;;;6.80;;
57295;SDS011;43146;50.976;18.216;2022-12-29T01:51:17;16.50;;;7.20;;
57295;SDS011;43146;50.976;18.216;2022-12-29T01:53:43;17.30;;;8.00;;
57295;SDS011;43146;50.976;18.216;2022-12-29T01:56:09;23.60;;;12.00;;
57295;SDS011;43146;50.976;18.216;2022-12-29T01:58:37;18.70;;;9.00;;
57295;SDS011;43146;50.976;18.216;2022-12-29T02:01:05;21.20;;;9.30;;
57295;SDS011;43146;50.976;18.216;2022-12-29T02:03:31;21.50;;;9.90;;
57295;SDS011;43146;50.976;18.216;2022-12-29T02:06:09;23.00;;;10.70;;
57295;SDS011;43146;50.976;18.216;2022-12-29T02:08:38;59.80;;;25.00;;
57295;SDS011;43146;50.976;18.216;2022-12-29T02:11:04;29.90;;;14.20;;
57295;SDS011;43146;50.976;18.216;2022-12-29T02:13:31;16.40;;;8.10;;
57295;SDS011;43146;50.976;18.216;2022-12-29T02:18:29;14.20;;;6.20;;
57295;SDS011;43146;50.976;18.216;2022-12-29T02:21:10;17.80;;;7.50;;
57295;SDS011;43146;50.976;18.216;2022-12-29T02:29:29;20.80;;;9.00;;
57295;SDS011;43146;50.976;18.216;2022-12-29T02:31:58;24.20;;;11.40;;
57295;SDS011;43146;50.976;18.216;2022-12-29T02:40:38;36.60;;;15.70;;
57295;SDS011;43146;50.976;18.216;2022-12-29T02:45:58;29.20;;;13.50;;
57295;SDS011;43146;50.976;18.216;2022-12-29T02:48:29;30.50;;;14.50;;
57295;SDS011;43146;50.976;18.216;2022-12-29T02:51:09;24.00;;;10.70;;
57295;SDS011;43146;50.976;18.216;2022-12-29T02:53:38;24.00;;;9.80;;
57295;SDS011;43146;50.976;18.216;2022-12-29T02:56:23;39.50;;;15.50;;
57295;SDS011;43146;50.976;18.216;2022-12-29T02:58:48;23.40;;;10.00;;
57295;SDS011;43146;50.976;18.216;2022-12-29T03:07:09;35.10;;;16.90;;
57295;SDS011;43146;50.976;18.216;2022-12-29T03:09:43;21.40;;;9.30;;
57295;SDS011;43146;50.976;18.216;2022-12-29T03:15:28;14.80;;;7.30;;
57295;SDS011;43146;50.976;18.216;2022-12-29T03:18:21;16.20;;;7.10;;
57295;SDS011;43146;50.976;18.216;2022-12-29T03:23:20;13.10;;;6.50;;
57295;SDS011;43146;50.976;18.216;2022-12-29T03:25:47;12.80;;;6.50;;
57295;SDS011;43146;50.976;18.216;2022-12-29T03:28:18;13.30;;;6.40;;
57295;SDS011;43146;50.976;18.216;2022-12-29T03:30:47;15.30;;;6.60;;
57295;SDS011;43146;50.976;18.216;2022-12-29T03:33:14;12.50;;;5.60;;
57295;SDS011;43146;50.976;18.216;2022-12-29T03:35:43;13.50;;;6.50;;
57295;SDS011;43146;50.976;18.216;2022-12-29T03:38:16;15.00;;;6.80;;
57295;SDS011;43146;50.976;18.216;2022-12-29T03:40:50;14.40;;;7.00;;
57295;SDS011;43146;50.976;18.216;2022-12-29T03:43:17;14.70;;;5.20;;
57295;SDS011;43146;50.976;18.216;2022-12-29T03:45:43;13.50;;;5.80;;
57295;SDS011;43146;50.976;18.216;2022-12-29T03:48:09;11.90;;;5.70;;
57295;SDS011;43146;50.976;18.216;2022-12-29T03:50:34;13.20;;;5.60;;
57295;SDS011;43146;50.976;18.216;2022-12-29T03:53:00;14.60;;;6.80;;
57295;SDS011;43146;50.976;18.216;2022-12-29T03:55:26;13.60;;;6.30;;
57295;SDS011;43146;50.976;18.216;2022-12-29T03:57:51;13.00;;;6.00;;
57295;SDS011;43146;50.976;18.216;2022-12-29T04:00:17;13.00;;;5.30;;
57295;SDS011;43146;50.976;18.216;2022-12-29T04:02:43;15.80;;;6.40;;
57295;SDS011;43146;50.976;18.216;2022-12-29T04:05:08;13.80;;;6.30;;
57295;SDS011;43146;50.976;18.216;2022-12-29T04:07:34;13.70;;;5.80;;
57295;SDS011;43146;50.976;18.216;2022-12-29T04:09:59;14.60;;;6.10;;
57295;SDS011;43146;50.976;18.216;2022-12-29T04:12:25;12.70;;;5.80;;
57295;SDS011;43146;50.976;18.216;2022-12-29T04:14:51;11.90;;;6.20;;
57295;SDS011;43146;50.976;18.216;2022-12-29T04:17:16;13.60;;;5.90;;
57295;SDS011;43146;50.976;18.216;2022-12-29T04:19:42;14.60;;;7.00;;
57295;SDS011;43146;50.976;18.216;2022-12-29T04:22:07;15.50;;;6.80;;
57295;SDS011;43146;50.976;18.216;2022-12-29T04:24:33;12.00;;;5.60;;
57295;SDS011;43146;50.976;18.216;2022-12-29T04:26:58;16.10;;;6.30;;
57295;SDS011;43146;50.976;18.216;2022-12-29T04:29:24;14.60;;;5.70;;
57295;SDS011;43146;50.976;18.216;2022-12-29T04:31:50;13.20;;;5.70;;
57295;SDS011;43146;50.976;18.216;2022-12-29T04:34:15;13.30;;;5.80;;
57295;SDS011;43146;50.976;18.216;2022-12-29T04:36:41;14.00;;;6.40;;
57295;SDS011;43146;50.976;18.216;2022-12-29T04:39:06;13.80;;;5.40;;
57295;SDS011;43146;50.976;18.216;2022-12-29T04:41:32;14.60;;;5.80;;
57295;SDS011;43146;50.976;18.216;2022-12-29T04:43:58;14.20;;;6.50;;
57295;SDS011;43146;50.976;18.216;2022-12-29T04:46:23;12.30;;;5.60;;
57295;SDS011;43146;50.976;18.216;2022-12-29T04:48:49;12.10;;;6.20;;
57295;SDS011;43146;50.976;18.216;2022-12-29T04:51:15;12.30;;;6.00;;
57295;SDS011;43146;50.976;18.216;2022-12-29T04:53:40;21.60;;;10.30;;
57295;SDS011;43146;50.976;18.216;2022-12-29T04:56:06;13.80;;;6.40;;
57295;SDS011;43146;50.976;18.216;2022-12-29T04:58:31;27.20;;;11.50;;
57295;SDS011;43146;50.976;18.216;2022-12-29T05:00:57;29.20;;;12.20;;
57295;SDS011;43146;50.976;18.216;2022-12-29T05:03:22;29.40;;;11.70;;
57295;SDS011;43146;50.976;18.216;2022-12-29T05:05:48;25.00;;;10.80;;
57295;SDS011;43146;50.976;18.216;2022-12-29T05:08:14;21.90;;;7.60;;
57295;SDS011;43146;50.976;18.216;2022-12-29T05:10:39;26.40;;;11.00;;
57295;SDS011;43146;50.976;18.216;2022-12-29T05:13:05;14.70;;;6.40;;
57295;SDS011;43146;50.976;18.216;2022-12-29T05:15:31;12.20;;;5.50;;
57295;SDS011;43146;50.976;18.216;2022-12-29T05:17:56;15.50;;;6.60;;
57295;SDS011;43146;50.976;18.216;2022-12-29T05:20:22;14.10;;;7.60;;
57295;SDS011;43146;50.976;18.216;2022-12-29T05:22:48;14.20;;;7.70;;
57295;SDS011;43146;50.976;18.216;2022-12-29T05:25:13;12.80;;;5.40;;
57295;SDS011;43146;50.976;18.216;2022-12-29T05:27:39;13.00;;;5.70;;
57295;SDS011;43146;50.976;18.216;2022-12-29T05:30:04;12.20;;;5.10;;
57295;SDS011;43146;50.976;18.216;2022-12-29T05:32:31;12.70;;;6.00;;
57295;SDS011;43146;50.976;18.216;2022-12-29T05:34:56;12.30;;;5.70;;
57295;SDS011;43146;50.976;18.216;2022-12-29T05:37:22;15.50;;;9.30;;
57295;SDS011;43146;50.976;18.216;2022-12-29T05:39:47;14.70;;;5.70;;
57295;SDS011;43146;50.976;18.216;2022-12-29T05:42:13;12.30;;;5.60;;
57295;SDS011;43146;50.976;18.216;2022-12-29T05:44:38;14.70;;;5.20;;
57295;SDS011;43146;50.976;18.216;2022-12-29T05:47:04;12.30;;;5.10;;
57295;SDS011;43146;50.976;18.216;2022-12-29T05:49:30;13.90;;;6.00;;
57295;SDS011;43146;50.976;18.216;2022-12-29T05:51:56;14.50;;;5.60;;
57295;SDS011;43146;50.976;18.216;2022-12-29T05:54:21;13.60;;;5.30;;
57295;SDS011;43146;50.976;18.216;2022-12-29T05:56:47;12.80;;;5.60;;
57295;SDS011;43146;50.976;18.216;2022-12-29T05:59:12;13.10;;;5.60;;
57295;SDS011;43146;50.976;18.216;2022-12-29T06:01:38;13.60;;;5.40;;
57295;SDS011;43146;50.976;18.216;2022-12-29T06:04:03;12.50;;;4.70;;
57295;SDS011;43146;50.976;18.216;2022-12-29T06:06:29;13.30;;;6.60;;
57295;SDS011;43146;50.976;18.216;2022-12-29T06:08:55;14.00;;;5.90;;
57295;SDS011;43146;50.976;18.216;2022-12-29T06:11:20;13.70;;;5.10;;
57295;SDS011;43146;50.976;18.216;2022-12-29T06:13:46;13.60;;;6.10;;
57295;SDS011;43146;50.976;18.216;2022-12-29T06:16:11;14.70;;;7.20;;
57295;SDS011;43146;50.976;18.216;2022-12-29T06:18:38;16.80;;;8.20;;
57295;SDS011;43146;50.976;18.216;2022-12-29T06:21:04;16.80;;;8.30;;
57295;SDS011;43146;50.976;18.216;2022-12-29T06:23:31;18.10;;;8.90;;
57295;SDS011;43146;50.976;18.216;2022-12-29T06:25:56;15.80;;;6.80;;
57295;SDS011;43146;50.976;18.216;2022-12-29T06:28:22;19.90;;;7.80;;
57295;SDS011;43146;50.976;18.216;2022-12-29T06:30:48;15.60;;;7.20;;
57295;SDS011;43146;50.976;18.216;2022-12-29T06:33:14;18.90;;;7.80;;
57295;SDS011;43146;50.976;18.216;2022-12-29T06:35:41;40.50;;;19.00;;
57295;SDS011;43146;50.976;18.216;2022-12-29T06:38:07;84.20;;;39.30;;
57295;SDS011;43146;50.976;18.216;2022-12-29T06:40:33;57.20;;;20.80;;
57295;SDS011;43146;50.976;18.216;2022-12-29T06:42:58;33.70;;;12.70;;
57295;SDS011;43146;50.976;18.216;2022-12-29T06:45:24;20.80;;;9.70;;
57295;SDS011;43146;50.976;18.216;2022-12-29T06:47:49;32.00;;;15.10;;
57295;SDS011;43146;50.976;18.216;2022-12-29T06:50:15;25.90;;;11.00;;
57295;SDS011;43146;50.976;18.216;2022-12-29T06:52:41;35.80;;;15.40;;
57295;SDS011;43146;50.976;18.216;2022-12-29T06:55:07;37.90;;;16.50;;
57295;SDS011;43146;50.976;18.216;2022-12-29T06:57:32;70.10;;;25.10;;
57295;SDS011;43146;50.976;18.216;2022-12-29T06:59:58;34.20;;;10.90;;
57295;SDS011;43146;50.976;18.216;2022-12-29T07:02:23;38.60;;;16.50;;
57295;SDS011;43146;50.976;18.216;2022-12-29T07:04:52;42.40;;;17.80;;
57295;SDS011;43146;50.976;18.216;2022-12-29T07:07:18;45.60;;;17.70;;
57295;SDS011;43146;50.976;18.216;2022-12-29T07:09:45;50.80;;;21.10;;
57295;SDS011;43146;50.976;18.216;2022-12-29T07:12:11;28.10;;;11.00;;
57295;SDS011;43146;50.976;18.216;2022-12-29T07:14:36;28.60;;;12.40;;
57295;SDS011;43146;50.976;18.216;2022-12-29T07:17:02;31.80;;;13.00;;
57295;SDS011;43146;50.976;18.216;2022-12-29T07:19:34;102.20;;;38.70;;
57295;SDS011;43146;50.976;18.216;2022-12-29T07:21:59;25.00;;;17.00;;
57295;SDS011;43146;50.976;18.216;2022-12-29T07:24:26;25.80;;;18.00;;
57295;SDS011;43146;50.976;18.216;2022-12-29T07:26:51;16.90;;;9.60;;
57295;SDS011;43146;50.976;18.216;2022-12-29T07:29:17;13.90;;;7.30;;
57295;SDS011;43146;50.976;18.216;2022-12-29T07:31:43;13.50;;;6.30;;
57295;SDS011;43146;50.976;18.216;2022-12-29T07:34:09;14.20;;;6.40;;
57295;SDS011;43146;50.976;18.216;2022-12-29T07:36:34;13.60;;;5.90;;
57295;SDS011;43146;50.976;18.216;2022-12-29T07:39:00;13.90;;;5.80;;
57295;SDS011;43146;50.976;18.216;2022-12-29T07:41:27;12.20;;;5.30;;
57295;SDS011;43146;50.976;18.216;2022-12-29T07:43:52;13.20;;;6.30;;
57295;SDS011;43146;50.976;18.216;2022-12-29T07:46:18;14.00;;;6.50;;
57295;SDS011;43146;50.976;18.216;2022-12-29T07:48:43;13.70;;;5.60;;
57295;SDS011;43146;50.976;18.216;2022-12-29T07:53:46;13.10;;;5.80;;
57295;SDS011;43146;50.976;18.216;2022-12-29T07:56:12;27.70;;;16.30;;
57295;SDS011;43146;50.976;18.216;2022-12-29T07:58:37;23.00;;;13.60;;
57295;SDS011;43146;50.976;18.216;2022-12-29T08:01:03;19.50;;;8.60;;
57295;SDS011;43146;50.976;18.216;2022-12-29T08:03:30;28.00;;;15.50;;
57295;SDS011;43146;50.976;18.216;2022-12-29T08:05:56;21.90;;;11.30;;
57295;SDS011;43146;50.976;18.216;2022-12-29T08:08:22;15.50;;;7.70;;
57295;SDS011;43146;50.976;18.216;2022-12-29T08:10:47;18.00;;;7.50;;
57295;SDS011;43146;50.976;18.216;2022-12-29T08:13:13;16.00;;;7.90;;
57295;SDS011;43146;50.976;18.216;2022-12-29T08:15:39;16.10;;;7.80;;
57295;SDS011;43146;50.976;18.216;2022-12-29T08:18:05;14.90;;;7.80;;
57295;SDS011;43146;50.976;18.216;2022-12-29T08:20:32;16.10;;;6.30;;
57295;SDS011;43146;50.976;18.216;2022-12-29T08:22:57;14.70;;;6.70;;
57295;SDS011;43146;50.976;18.216;2022-12-29T08:25:23;17.30;;;8.30;;
57295;SDS011;43146;50.976;18.216;2022-12-29T08:27:49;11.70;;;4.90;;
57295;SDS011;43146;50.976;18.216;2022-12-29T08:30:14;13.00;;;6.20;;
57295;SDS011;43146;50.976;18.216;2022-12-29T08:32:40;14.70;;;6.20;;
57295;SDS011;43146;50.976;18.216;2022-12-29T08:35:06;16.50;;;8.20;;
57295;SDS011;43146;50.976;18.216;2022-12-29T08:37:32;14.80;;;5.50;;
57295;SDS011;43146;50.976;18.216;2022-12-29T08:39:58;14.40;;;5.80;;
57295;SDS011;43146;50.976;18.216;2022-12-29T08:42:29;15.10;;;6.20;;
57295;SDS011;43146;50.976;18.216;2022-12-29T08:44:57;15.40;;;7.00;;
57295;SDS011;43146;50.976;18.216;2022-12-29T08:47:23;17.50;;;7.20;;
57295;SDS011;43146;50.976;18.216;2022-12-29T08:49:49;13.40;;;6.40;;
57295;SDS011;43146;50.976;18.216;2022-12-29T08:52:14;14.60;;;6.30;;
57295;SDS011;43146;50.976;18.216;2022-12-29T08:54:40;12.80;;;5.50;;
57295;SDS011;43146;50.976;18.216;2022-12-29T08:57:06;14.40;;;5.80;;
57295;SDS011;43146;50.976;18.216;2022-12-29T08:59:31;15.00;;;6.40;;
57295;SDS011;43146;50.976;18.216;2022-12-29T09:01:57;13.20;;;5.30;;
57295;SDS011;43146;50.976;18.216;2022-12-29T09:04:23;13.80;;;5.80;;
57295;SDS011;43146;50.976;18.216;2022-12-29T09:06:48;15.10;;;6.00;;
57295;SDS011;43146;50.976;18.216;2022-12-29T09:09:14;13.50;;;6.10;;
57295;SDS011;43146;50.976;18.216;2022-12-29T09:11:41;15.30;;;5.90;;
57295;SDS011;43146;50.976;18.216;2022-12-29T09:14:07;14.00;;;5.90;;
57295;SDS011;43146;50.976;18.216;2022-12-29T09:16:32;13.20;;;5.90;;
57295;SDS011;43146;50.976;18.216;2022-12-29T09:18:59;13.10;;;5.50;;
57295;SDS011;43146;50.976;18.216;2022-12-29T09:21:25;14.20;;;5.70;;
57295;SDS011;43146;50.976;18.216;2022-12-29T09:23:50;15.40;;;6.10;;
57295;SDS011;43146;50.976;18.216;2022-12-29T09:26:16;16.70;;;6.40;;
57295;SDS011;43146;50.976;18.216;2022-12-29T09:28:41;13.00;;;5.30;;
57295;SDS011;43146;50.976;18.216;2022-12-29T09:31:09;16.50;;;7.00;;
57295;SDS011;43146;50.976;18.216;2022-12-29T09:33:35;15.00;;;6.30;;
57295;SDS011;43146;50.976;18.216;2022-12-29T09:36:01;14.20;;;6.40;;
57295;SDS011;43146;50.976;18.216;2022-12-29T09:38:27;15.00;;;6.40;;
57295;SDS011;43146;50.976;18.216;2022-12-29T09:40:55;12.00;;;5.40;;
57295;SDS011;43146;50.976;18.216;2022-12-29T09:46:23;15.20;;;5.50;;
57295;SDS011;43146;50.976;18.216;2022-12-29T09:49:24;17.70;;;7.50;;
57295;SDS011;43146;50.976;18.216;2022-12-29T09:51:53;17.20;;;7.20;;
57295;SDS011;43146;50.976;18.216;2022-12-29T09:54:36;15.00;;;6.00;;
57295;SDS011;43146;50.976;18.216;2022-12-29T09:57:18;19.50;;;9.80;;
57295;SDS011;43146;50.976;18.216;2022-12-29T09:59:48;36.10;;;17.00;;
57295;SDS011;43146;50.976;18.216;2022-12-29T10:04:49;59.50;;;24.90;;
57295;SDS011;43146;50.976;18.216;2022-12-29T10:07:18;83.90;;;40.60;;
57295;SDS011;43146;50.976;18.216;2022-12-29T10:13:00;54.80;;;19.10;;
57295;SDS011;43146;50.976;18.216;2022-12-29T10:23:33;74.50;;;24.40;;
57295;SDS011;43146;50.976;18.216;2022-12-29T10:26:04;42.00;;;15.00;;
57295;SDS011;43146;50.976;18.216;2022-12-29T10:28:39;43.20;;;20.60;;
57295;SDS011;43146;50.976;18.216;2022-12-29T10:31:28;17.90;;;6.40;;
57295;SDS011;43146;50.976;18.216;2022-12-29T10:34:07;15.50;;;7.10;;
57295;SDS011;43146;50.976;18.216;2022-12-29T10:36:48;25.00;;;12.10;;
57295;SDS011;43146;50.976;18.216;2022-12-29T10:39:36;17.50;;;7.60;;
57295;SDS011;43146;50.976;18.216;2022-12-29T10:44:44;15.30;;;6.40;;
57295;SDS011;43146;50.976;18.216;2022-12-29T10:47:12;16.30;;;8.30;;
57295;SDS011;43146;50.976;18.216;2022-12-29T10:49:41;17.10;;;7.70;;
57295;SDS011;43146;50.976;18.216;2022-12-29T10:52:08;53.10;;;19.70;;
57295;SDS011;43146;50.976;18.216;2022-12-29T10:59:57;101.40;;;36.50;;
57295;SDS011;43146;50.976;18.216;2022-12-29T11:05:10;18.40;;;7.30;;
57295;SDS011;43146;50.976;18.216;2022-12-29T11:08:19;22.70;;;11.90;;
57295;SDS011;43146;50.976;18.216;2022-12-29T11:10:56;23.90;;;9.60;;
57295;SDS011;43146;50.976;18.216;2022-12-29T11:13:46;41.90;;;16.70;;
57295;SDS011;43146;50.976;18.216;2022-12-29T11:16:13;36.50;;;15.30;;
57295;SDS011;43146;50.976;18.216;2022-12-29T11:18:39;38.20;;;14.20;;
57295;SDS011;43146;50.976;18.216;2022-12-29T11:24:03;38.10;;;16.30;;
57295;SDS011;43146;50.976;18.216;2022-12-29T11:26:31;52.70;;;19.50;;
57295;SDS011;43146;50.976;18.216;2022-12-29T11:34:08;53.80;;;23.00;;
57295;SDS011;43146;50.976;18.216;2022-12-29T11:36:34;46.60;;;21.20;;
57295;SDS011;43146;50.976;18.216;2022-12-29T11:39:01;29.80;;;14.20;;
57295;SDS011;43146;50.976;18.216;2022-12-29T11:41:28;15.00;;;8.10;;
57295;SDS011;43146;50.976;18.216;2022-12-29T11:43:56;16.20;;;7.20;;
57295;SDS011;43146;50.976;18.216;2022-12-29T11:46:24;15.90;;;5.90;;
57295;SDS011;43146;50.976;18.216;2022-12-29T11:48:51;16.70;;;7.50;;
57295;SDS011;43146;50.976;18.216;2022-12-29T11:51:23;14.80;;;7.00;;
57295;SDS011;43146;50.976;18.216;2022-12-29T11:53:53;15.20;;;6.40;;
57295;SDS011;43146;50.976;18.216;2022-12-29T11:56:41;15.80;;;7.10;;
57295;SDS011;43146;50.976;18.216;2022-12-29T12:01:52;14.70;;;5.60;;
57295;SDS011;43146;50.976;18.216;2022-12-29T12:04:20;12.80;;;5.70;;
57295;SDS011;43146;50.976;18.216;2022-12-29T12:12:09;14.90;;;6.90;;
57295;SDS011;43146;50.976;18.216;2022-12-29T12:14:50;15.80;;;7.50;;
57295;SDS011;43146;50.976;18.216;2022-12-29T12:22:49;15.70;;;7.10;;
57295;SDS011;43146;50.976;18.216;2022-12-29T12:25:35;16.40;;;7.60;;
57295;SDS011;43146;50.976;18.216;2022-12-29T12:30:45;13.30;;;6.20;;
57295;SDS011;43146;50.976;18.216;2022-12-29T12:44:01;47.10;;;28.00;;
57295;SDS011;43146;50.976;18.216;2022-12-29T12:46:46;31.30;;;23.60;;
57295;SDS011;43146;50.976;18.216;2022-12-29T12:52:22;22.70;;;14.20;;
57295;SDS011;43146;50.976;18.216;2022-12-29T13:00:41;60.40;;;21.80;;
57295;SDS011;43146;50.976;18.216;2022-12-29T13:03:13;44.20;;;18.40;;
57295;SDS011;43146;50.976;18.216;2022-12-29T13:19:27;68.80;;;44.50;;
57295;SDS011;43146;50.976;18.216;2022-12-29T13:30:18;20.10;;;9.60;;
57295;SDS011;43146;50.976;18.216;2022-12-29T13:32:56;18.30;;;10.30;;
57295;SDS011;43146;50.976;18.216;2022-12-29T13:38:25;20.60;;;8.80;;
57295;SDS011;43146;50.976;18.216;2022-12-29T13:40:56;16.10;;;7.20;;
57295;SDS011;43146;50.976;18.216;2022-12-29T13:43:27;16.00;;;6.80;;
57295;SDS011;43146;50.976;18.216;2022-12-29T13:46:12;17.40;;;7.00;;
57295;SDS011;43146;50.976;18.216;2022-12-29T13:48:58;14.30;;;6.20;;
57295;SDS011;43146;50.976;18.216;2022-12-29T13:51:27;16.60;;;7.50;;
57295;SDS011;43146;50.976;18.216;2022-12-29T13:56:28;16.40;;;7.80;;
57295;SDS011;43146;50.976;18.216;2022-12-29T13:59:17;15.00;;;6.60;;
57295;SDS011;43146;50.976;18.216;2022-12-29T14:01:48;17.00;;;8.00;;
57295;SDS011;43146;50.976;18.216;2022-12-29T14:04:23;17.70;;;7.10;;
57295;SDS011;43146;50.976;18.216;2022-12-29T14:07:15;19.30;;;9.20;;
57295;SDS011;43146;50.976;18.216;2022-12-29T14:09:47;24.10;;;12.40;;
57295;SDS011;43146;50.976;18.216;2022-12-29T14:15:02;25.50;;;12.90;;
57295;SDS011;43146;50.976;18.216;2022-12-29T14:17:34;24.80;;;11.10;;
57295;SDS011;43146;50.976;18.216;2022-12-29T14:20:01;20.20;;;8.70;;
57295;SDS011;43146;50.976;18.216;2022-12-29T14:22:28;22.80;;;10.80;;
57295;SDS011;43146;50.976;18.216;2022-12-29T14:24:54;19.00;;;9.00;;
57295;SDS011;43146;50.976;18.216;2022-12-29T14:29:46;65.70;;;21.70;;
57295;SDS011;43146;50.976;18.216;2022-12-29T14:34:51;58.50;;;19.60;;
57295;SDS011;43146;50.976;18.216;2022-12-29T14:37:25;18.50;;;8.10;;
57295;SDS011;43146;50.976;18.216;2022-12-29T14:42:32;52.40;;;18.10;;
57295;SDS011;43146;50.976;18.216;2022-12-29T14:45:00;76.10;;;23.10;;
57295;SDS011;43146;50.976;18.216;2022-12-29T14:47:48;66.20;;;19.30;;
57295;SDS011;43146;50.976;18.216;2022-12-29T14:50:21;51.60;;;14.70;;
57295;SDS011;43146;50.976;18.216;2022-12-29T15:01:23;24.40;;;11.20;;
57295;SDS011;43146;50.976;18.216;2022-12-29T15:03:51;26.90;;;13.90;;
57295;SDS011;43146;50.976;18.216;2022-12-29T15:06:20;19.90;;;8.40;;
57295;SDS011;43146;50.976;18.216;2022-12-29T15:11:20;18.50;;;9.80;;
57295;SDS011;43146;50.976;18.216;2022-12-29T15:13:47;18.70;;;7.60;;
57295;SDS011;43146;50.976;18.216;2022-12-29T15:16:29;16.00;;;7.20;;
57295;SDS011;43146;50.976;18.216;2022-12-29T15:18:56;18.40;;;8.40;;
57295;SDS011;43146;50.976;18.216;2022-12-29T15:21:26;20.30;;;8.80;;
57295;SDS011;43146;50.976;18.216;2022-12-29T15:23:54;19.10;;;8.70;;
57295;SDS011;43146;50.976;18.216;2022-12-29T15:26:20;17.70;;;7.70;;
57295;SDS011;43146;50.976;18.216;2022-12-29T15:28:49;18.30;;;8.90;;
57295;SDS011;43146;50.976;18.216;2022-12-29T15:31:19;20.40;;;9.60;;
57295;SDS011;43146;50.976;18.216;2022-12-29T15:33:48;19.20;;;9.50;;
57295;SDS011;43146;50.976;18.216;2022-12-29T15:36:19;18.50;;;8.80;;
57295;SDS011;43146;50.976;18.216;2022-12-29T15:46:31;16.30;;;7.90;;
57295;SDS011;43146;50.976;18.216;2022-12-29T15:48:57;18.90;;;8.60;;
57295;SDS011;43146;50.976;18.216;2022-12-29T15:51:28;19.50;;;9.50;;
57295;SDS011;43146;50.976;18.216;2022-12-29T15:53:56;19.90;;;9.90;;
57295;SDS011;43146;50.976;18.216;2022-12-29T15:56:22;18.40;;;9.10;;
57295;SDS011;43146;50.976;18.216;2022-12-29T15:58:49;17.40;;;8.70;;
57295;SDS011;43146;50.976;18.216;2022-12-29T16:03:58;22.20;;;10.20;;
57295;SDS011;43146;50.976;18.216;2022-12-29T16:06:27;21.40;;;10.60;;
57295;SDS011;43146;50.976;18.216;2022-12-29T16:08:58;20.30;;;9.60;;
57295;SDS011;43146;50.976;18.216;2022-12-29T16:11:36;18.50;;;9.80;;
57295;SDS011;43146;50.976;18.216;2022-12-29T16:14:07;19.50;;;8.90;;
57295;SDS011;43146;50.976;18.216;2022-12-29T16:16:36;19.00;;;9.20;;
57295;SDS011;43146;50.976;18.216;2022-12-29T16:19:06;21.70;;;10.20;;
57295;SDS011;43146;50.976;18.216;2022-12-29T16:21:40;17.20;;;8.40;;
57295;SDS011;43146;50.976;18.216;2022-12-29T16:24:17;19.50;;;8.80;;
57295;SDS011;43146;50.976;18.216;2022-12-29T16:26:49;18.10;;;9.10;;
57295;SDS011;43146;50.976;18.216;2022-12-29T16:29:17;22.40;;;10.40;;
57295;SDS011;43146;50.976;18.216;2022-12-29T16:31:50;20.70;;;9.50;;
57295;SDS011;43146;50.976;18.216;2022-12-29T16:34:30;20.60;;;10.00;;
57295;SDS011;43146;50.976;18.216;2022-12-29T16:47:47;19.30;;;8.80;;
57295;SDS011;43146;50.976;18.216;2022-12-29T16:50:16;25.50;;;11.40;;
57295;SDS011;43146;50.976;18.216;2022-12-29T16:52:47;21.70;;;9.90;;
57295;SDS011;43146;50.976;18.216;2022-12-29T16:55:17;19.70;;;10.00;;
57295;SDS011;43146;50.976;18.216;2022-12-29T16:57:44;41.40;;;18.60;;
57295;SDS011;43146;50.976;18.216;2022-12-29T17:00:25;29.30;;;12.90;;
57295;SDS011;43146;50.976;18.216;2022-12-29T17:02:54;23.50;;;11.10;;
57295;SDS011;43146;50.976;18.216;2022-12-29T17:05:22;31.70;;;14.90;;
57295;SDS011;43146;50.976;18.216;2022-12-29T17:07:48;28.90;;;13.30;;
57295;SDS011;43146;50.976;18.216;2022-12-29T17:10:14;31.60;;;15.60;;
57295;SDS011;43146;50.976;18.216;2022-12-29T17:12:41;26.80;;;11.90;;
57295;SDS011;43146;50.976;18.216;2022-12-29T17:15:26;21.40;;;11.30;;
57295;SDS011;43146;50.976;18.216;2022-12-29T17:17:57;20.00;;;9.90;;
57295;SDS011;43146;50.976;18.216;2022-12-29T17:20:25;22.20;;;9.50;;
57295;SDS011;43146;50.976;18.216;2022-12-29T17:22:54;26.50;;;12.00;;
57295;SDS011;43146;50.976;18.216;2022-12-29T17:25:22;22.50;;;11.00;;
57295;SDS011;43146;50.976;18.216;2022-12-29T17:27:55;22.00;;;11.30;;